Centerville, Nevada
Current Conditions -  °F | °C
As of 2:55 PM on Thursday 18 Dec 2014 (Local Time) from KMEV Reporting Station
Clear Clear  
Wind Chill: 48°   Ceiling: Unl
Heat Index: 48°   Visibility: 10mi
Dew Point: 25°   Wind: 0mph
Humidity: 40%   Direction: NA
Pressure: 30.11"   Gusts: NA
Location:  38.9417°N, 119.681°W
Report Text: KMEV 182255Z AUTO 00000KT 10SM CLR 09/M04 A3011 RMK AO2
Loading
Personal Weather Stations






























Interactive Weather Map New forecast layout! Learn more

10-Day Weather Forecast

Advertisements
Track Severe Weather on mobile